sensor_id;sensor_type;location;lat;lon;timestamp;P1;durP1;ratioP1;P2;durP2;ratioP2
64959;SDS011;51487;52.266;10.542;2022-07-18T00:00:08;4.05;;;2.00;;
64959;SDS011;51487;52.266;10.542;2022-07-18T00:02:34;6.30;;;2.38;;
64959;SDS011;51487;52.266;10.542;2022-07-18T00:05:00;7.60;;;2.25;;
64959;SDS011;51487;52.266;10.542;2022-07-18T00:07:26;3.70;;;2.00;;
64959;SDS011;51487;52.266;10.542;2022-07-18T00:09:51;6.05;;;2.33;;
64959;SDS011;51487;52.266;10.542;2022-07-18T00:12:17;5.90;;;2.22;;
64959;SDS011;51487;52.266;10.542;2022-07-18T00:14:43;4.82;;;2.10;;
64959;SDS011;51487;52.266;10.542;2022-07-18T00:17:09;4.82;;;2.22;;
64959;SDS011;51487;52.266;10.542;2022-07-18T00:19:35;4.15;;;1.92;;
64959;SDS011;51487;52.266;10.542;2022-07-18T00:22:02;5.70;;;1.88;;
64959;SDS011;51487;52.266;10.542;2022-07-18T00:24:29;9.05;;;2.55;;
64959;SDS011;51487;52.266;10.542;2022-07-18T00:26:54;4.78;;;2.25;;
64959;SDS011;51487;52.266;10.542;2022-07-18T00:29:20;4.95;;;1.85;;
64959;SDS011;51487;52.266;10.542;2022-07-18T00:31:46;4.78;;;1.90;;
64959;SDS011;51487;52.266;10.542;2022-07-18T00:34:11;4.68;;;2.30;;
64959;SDS011;51487;52.266;10.542;2022-07-18T00:36:37;3.95;;;2.20;;
64959;SDS011;51487;52.266;10.542;2022-07-18T00:39:03;5.53;;;2.00;;
64959;SDS011;51487;52.266;10.542;2022-07-18T00:41:29;6.90;;;2.10;;
64959;SDS011;51487;52.266;10.542;2022-07-18T00:43:54;8.73;;;2.22;;
64959;SDS011;51487;52.266;10.542;2022-07-18T00:46:22;2.92;;;1.95;;
64959;SDS011;51487;52.266;10.542;2022-07-18T00:48:50;4.53;;;2.30;;
64959;SDS011;51487;52.266;10.542;2022-07-18T00:51:16;5.28;;;2.03;;
64959;SDS011;51487;52.266;10.542;2022-07-18T00:53:43;5.53;;;2.13;;
64959;SDS011;51487;52.266;10.542;2022-07-18T00:56:10;3.78;;;1.95;;
64959;SDS011;51487;52.266;10.542;2022-07-18T00:58:38;3.17;;;1.80;;
64959;SDS011;51487;52.266;10.542;2022-07-18T01:01:04;6.15;;;2.17;;
64959;SDS011;51487;52.266;10.542;2022-07-18T01:03:48;4.97;;;1.98;;
64959;SDS011;51487;52.266;10.542;2022-07-18T01:06:14;3.65;;;1.80;;
64959;SDS011;51487;52.266;10.542;2022-07-18T01:08:42;6.18;;;2.50;;
64959;SDS011;51487;52.266;10.542;2022-07-18T01:11:08;6.13;;;2.13;;
64959;SDS011;51487;52.266;10.542;2022-07-18T01:13:35;5.55;;;1.95;;
64959;SDS011;51487;52.266;10.542;2022-07-18T01:16:02;4.70;;;1.75;;
64959;SDS011;51487;52.266;10.542;2022-07-18T01:18:29;4.88;;;2.25;;
64959;SDS011;51487;52.266;10.542;2022-07-18T01:20:54;6.05;;;2.20;;
64959;SDS011;51487;52.266;10.542;2022-07-18T01:23:20;5.05;;;1.85;;
64959;SDS011;51487;52.266;10.542;2022-07-18T01:25:45;5.72;;;1.98;;
64959;SDS011;51487;52.266;10.542;2022-07-18T01:28:11;5.70;;;1.80;;
64959;SDS011;51487;52.266;10.542;2022-07-18T01:30:38;4.88;;;1.92;;
64959;SDS011;51487;52.266;10.542;2022-07-18T01:33:03;8.63;;;2.15;;
64959;SDS011;51487;52.266;10.542;2022-07-18T01:35:29;3.78;;;2.00;;
64959;SDS011;51487;52.266;10.542;2022-07-18T01:37:56;2.90;;;1.75;;
64959;SDS011;51487;52.266;10.542;2022-07-18T01:40:24;4.38;;;1.90;;
64959;SDS011;51487;52.266;10.542;2022-07-18T01:42:51;3.40;;;1.80;;
64959;SDS011;51487;52.266;10.542;2022-07-18T01:45:18;5.03;;;1.90;;
64959;SDS011;51487;52.266;10.542;2022-07-18T01:47:44;5.70;;;2.10;;
64959;SDS011;51487;52.266;10.542;2022-07-18T01:50:11;4.35;;;2.00;;
64959;SDS011;51487;52.266;10.542;2022-07-18T01:52:38;5.82;;;2.22;;
64959;SDS011;51487;52.266;10.542;2022-07-18T01:55:05;3.47;;;1.70;;
64959;SDS011;51487;52.266;10.542;2022-07-18T01:57:33;4.10;;;2.13;;
64959;SDS011;51487;52.266;10.542;2022-07-18T01:59:59;6.30;;;1.90;;
64959;SDS011;51487;52.266;10.542;2022-07-18T02:02:25;3.42;;;1.77;;
64959;SDS011;51487;52.266;10.542;2022-07-18T02:04:50;4.38;;;2.20;;
64959;SDS011;51487;52.266;10.542;2022-07-18T02:07:29;4.82;;;2.03;;
64959;SDS011;51487;52.266;10.542;2022-07-18T02:10:06;6.45;;;2.03;;
64959;SDS011;51487;52.266;10.542;2022-07-18T02:12:35;2.45;;;1.63;;
64959;SDS011;51487;52.266;10.542;2022-07-18T02:15:02;4.22;;;1.92;;
64959;SDS011;51487;52.266;10.542;2022-07-18T02:17:30;3.72;;;1.90;;
64959;SDS011;51487;52.266;10.542;2022-07-18T02:19:56;2.47;;;1.60;;
64959;SDS011;51487;52.266;10.542;2022-07-18T02:22:22;5.10;;;2.00;;
64959;SDS011;51487;52.266;10.542;2022-07-18T02:24:49;3.95;;;2.10;;
64959;SDS011;51487;52.266;10.542;2022-07-18T02:27:16;5.05;;;2.63;;
64959;SDS011;51487;52.266;10.542;2022-07-18T02:29:43;3.53;;;1.80;;
64959;SDS011;51487;52.266;10.542;2022-07-18T02:32:09;5.03;;;2.10;;
64959;SDS011;51487;52.266;10.542;2022-07-18T02:34:34;17.83;;;2.28;;
64959;SDS011;51487;52.266;10.542;2022-07-18T02:37:00;3.72;;;1.60;;
64959;SDS011;51487;52.266;10.542;2022-07-18T02:39:26;4.85;;;2.10;;
64959;SDS011;51487;52.266;10.542;2022-07-18T02:41:52;3.97;;;1.73;;
64959;SDS011;51487;52.266;10.542;2022-07-18T02:44:18;5.30;;;2.00;;
64959;SDS011;51487;52.266;10.542;2022-07-18T02:46:44;7.05;;;2.15;;
64959;SDS011;51487;52.266;10.542;2022-07-18T02:49:09;3.80;;;2.17;;
64959;SDS011;51487;52.266;10.542;2022-07-18T02:51:51;5.15;;;2.35;;
64959;SDS011;51487;52.266;10.542;2022-07-18T02:54:37;3.92;;;1.80;;
64959;SDS011;51487;52.266;10.542;2022-07-18T02:57:04;3.95;;;2.03;;
64959;SDS011;51487;52.266;10.542;2022-07-18T02:59:30;4.50;;;1.98;;
64959;SDS011;51487;52.266;10.542;2022-07-18T03:01:57;4.95;;;2.10;;
64959;SDS011;51487;52.266;10.542;2022-07-18T03:04:23;5.20;;;2.05;;
64959;SDS011;51487;52.266;10.542;2022-07-18T03:06:49;2.88;;;1.70;;
64959;SDS011;51487;52.266;10.542;2022-07-18T03:09:16;5.43;;;1.88;;
64959;SDS011;51487;52.266;10.542;2022-07-18T03:11:42;2.88;;;1.83;;
64959;SDS011;51487;52.266;10.542;2022-07-18T03:14:07;6.68;;;2.22;;
64959;SDS011;51487;52.266;10.542;2022-07-18T03:16:33;4.22;;;2.00;;
64959;SDS011;51487;52.266;10.542;2022-07-18T03:19:00;5.35;;;1.95;;
64959;SDS011;51487;52.266;10.542;2022-07-18T03:21:26;5.40;;;1.80;;
64959;SDS011;51487;52.266;10.542;2022-07-18T03:23:52;3.58;;;1.65;;
64959;SDS011;51487;52.266;10.542;2022-07-18T03:26:17;4.25;;;2.13;;
64959;SDS011;51487;52.266;10.542;2022-07-18T03:28:43;6.72;;;2.03;;
64959;SDS011;51487;52.266;10.542;2022-07-18T03:31:09;2.63;;;1.52;;
64959;SDS011;51487;52.266;10.542;2022-07-18T03:33:36;3.55;;;1.70;;
64959;SDS011;51487;52.266;10.542;2022-07-18T03:36:01;4.80;;;2.13;;
64959;SDS011;51487;52.266;10.542;2022-07-18T03:38:27;3.97;;;1.70;;
64959;SDS011;51487;52.266;10.542;2022-07-18T03:40:53;3.10;;;1.63;;
64959;SDS011;51487;52.266;10.542;2022-07-18T03:43:18;2.92;;;1.70;;
64959;SDS011;51487;52.266;10.542;2022-07-18T03:45:44;4.82;;;1.65;;
64959;SDS011;51487;52.266;10.542;2022-07-18T03:48:09;5.35;;;1.80;;
64959;SDS011;51487;52.266;10.542;2022-07-18T03:50:35;6.97;;;1.92;;
64959;SDS011;51487;52.266;10.542;2022-07-18T03:53:00;2.90;;;1.67;;
64959;SDS011;51487;52.266;10.542;2022-07-18T03:55:26;5.30;;;2.10;;
64959;SDS011;51487;52.266;10.542;2022-07-18T03:57:51;4.03;;;1.70;;
64959;SDS011;51487;52.266;10.542;2022-07-18T04:00:17;3.33;;;1.50;;
64959;SDS011;51487;52.266;10.542;2022-07-18T04:02:45;4.63;;;1.77;;
64959;SDS011;51487;52.266;10.542;2022-07-18T04:05:12;5.00;;;2.10;;
64959;SDS011;51487;52.266;10.542;2022-07-18T04:07:39;5.05;;;2.08;;
64959;SDS011;51487;52.266;10.542;2022-07-18T04:10:06;9.30;;;1.92;;
64959;SDS011;51487;52.266;10.542;2022-07-18T04:12:33;5.57;;;1.70;;
64959;SDS011;51487;52.266;10.542;2022-07-18T04:14:59;3.15;;;1.67;;
64959;SDS011;51487;52.266;10.542;2022-07-18T04:17:25;3.00;;;1.80;;
64959;SDS011;51487;52.266;10.542;2022-07-18T04:19:50;7.93;;;1.80;;
64959;SDS011;51487;52.266;10.542;2022-07-18T04:22:17;4.40;;;1.70;;
64959;SDS011;51487;52.266;10.542;2022-07-18T04:24:43;5.70;;;1.75;;
64959;SDS011;51487;52.266;10.542;2022-07-18T04:27:08;3.45;;;1.92;;
64959;SDS011;51487;52.266;10.542;2022-07-18T04:29:34;6.55;;;1.80;;
64959;SDS011;51487;52.266;10.542;2022-07-18T04:32:01;4.80;;;1.85;;
64959;SDS011;51487;52.266;10.542;2022-07-18T04:34:27;4.40;;;1.83;;
64959;SDS011;51487;52.266;10.542;2022-07-18T04:36:53;6.07;;;2.05;;
64959;SDS011;51487;52.266;10.542;2022-07-18T04:39:18;3.22;;;1.80;;
64959;SDS011;51487;52.266;10.542;2022-07-18T04:41:44;6.43;;;1.98;;
64959;SDS011;51487;52.266;10.542;2022-07-18T04:44:10;7.78;;;2.00;;
64959;SDS011;51487;52.266;10.542;2022-07-18T04:46:35;4.50;;;1.80;;
64959;SDS011;51487;52.266;10.542;2022-07-18T04:49:01;4.18;;;1.80;;
64959;SDS011;51487;52.266;10.542;2022-07-18T04:51:27;6.82;;;1.85;;
64959;SDS011;51487;52.266;10.542;2022-07-18T04:53:53;4.43;;;1.80;;
64959;SDS011;51487;52.266;10.542;2022-07-18T04:56:20;3.45;;;1.70;;
64959;SDS011;51487;52.266;10.542;2022-07-18T04:58:46;3.55;;;1.60;;
64959;SDS011;51487;52.266;10.542;2022-07-18T05:01:12;6.03;;;1.90;;
64959;SDS011;51487;52.266;10.542;2022-07-18T05:03:38;5.00;;;2.15;;
64959;SDS011;51487;52.266;10.542;2022-07-18T05:06:04;7.55;;;1.98;;
64959;SDS011;51487;52.266;10.542;2022-07-18T05:08:30;5.30;;;2.00;;
64959;SDS011;51487;52.266;10.542;2022-07-18T05:10:56;9.68;;;1.80;;
64959;SDS011;51487;52.266;10.542;2022-07-18T05:13:22;5.07;;;1.52;;
64959;SDS011;51487;52.266;10.542;2022-07-18T05:15:47;3.33;;;1.50;;
64959;SDS011;51487;52.266;10.542;2022-07-18T05:18:13;13.40;;;1.92;;
64959;SDS011;51487;52.266;10.542;2022-07-18T05:20:39;4.28;;;1.50;;
64959;SDS011;51487;52.266;10.542;2022-07-18T05:23:05;5.70;;;1.65;;
64959;SDS011;51487;52.266;10.542;2022-07-18T05:25:31;5.60;;;1.70;;
64959;SDS011;51487;52.266;10.542;2022-07-18T05:27:56;5.47;;;1.90;;
64959;SDS011;51487;52.266;10.542;2022-07-18T05:30:22;5.05;;;1.83;;
64959;SDS011;51487;52.266;10.542;2022-07-18T05:32:48;4.20;;;1.90;;
64959;SDS011;51487;52.266;10.542;2022-07-18T05:35:14;3.10;;;1.60;;
64959;SDS011;51487;52.266;10.542;2022-07-18T05:37:40;6.63;;;1.80;;
64959;SDS011;51487;52.266;10.542;2022-07-18T05:40:08;3.35;;;1.70;;
64959;SDS011;51487;52.266;10.542;2022-07-18T05:42:36;2.38;;;1.70;;
64959;SDS011;51487;52.266;10.542;2022-07-18T05:45:02;3.67;;;1.70;;
64959;SDS011;51487;52.266;10.542;2022-07-18T05:47:29;5.00;;;1.70;;
64959;SDS011;51487;52.266;10.542;2022-07-18T05:49:55;3.80;;;1.50;;
64959;SDS011;51487;52.266;10.542;2022-07-18T05:52:20;2.53;;;1.50;;
64959;SDS011;51487;52.266;10.542;2022-07-18T05:54:46;3.95;;;1.50;;
64959;SDS011;51487;52.266;10.542;2022-07-18T05:57:12;4.30;;;1.80;;
64959;SDS011;51487;52.266;10.542;2022-07-18T05:59:38;5.13;;;1.67;;
64959;SDS011;51487;52.266;10.542;2022-07-18T06:02:03;3.08;;;1.52;;
64959;SDS011;51487;52.266;10.542;2022-07-18T06:04:29;4.63;;;1.80;;
64959;SDS011;51487;52.266;10.542;2022-07-18T06:06:54;3.20;;;1.67;;
64959;SDS011;51487;52.266;10.542;2022-07-18T06:09:20;6.55;;;1.63;;
64959;SDS011;51487;52.266;10.542;2022-07-18T06:11:46;4.00;;;1.50;;
64959;SDS011;51487;52.266;10.542;2022-07-18T06:14:11;5.63;;;1.98;;
64959;SDS011;51487;52.266;10.542;2022-07-18T06:16:37;6.00;;;1.65;;
64959;SDS011;51487;52.266;10.542;2022-07-18T06:19:02;2.72;;;1.70;;
64959;SDS011;51487;52.266;10.542;2022-07-18T06:21:28;3.58;;;1.73;;
64959;SDS011;51487;52.266;10.542;2022-07-18T06:23:54;3.38;;;1.50;;
64959;SDS011;51487;52.266;10.542;2022-07-18T06:26:20;3.53;;;1.60;;
64959;SDS011;51487;52.266;10.542;2022-07-18T06:28:46;5.97;;;1.73;;
64959;SDS011;51487;52.266;10.542;2022-07-18T06:31:12;2.38;;;1.50;;
64959;SDS011;51487;52.266;10.542;2022-07-18T06:33:41;2.90;;;1.58;;
64959;SDS011;51487;52.266;10.542;2022-07-18T06:36:07;3.60;;;1.42;;
64959;SDS011;51487;52.266;10.542;2022-07-18T06:38:33;5.88;;;1.60;;
64959;SDS011;51487;52.266;10.542;2022-07-18T06:40:59;3.70;;;1.40;;
64959;SDS011;51487;52.266;10.542;2022-07-18T06:43:25;4.40;;;1.63;;
64959;SDS011;51487;52.266;10.542;2022-07-18T06:45:50;3.72;;;1.60;;
64959;SDS011;51487;52.266;10.542;2022-07-18T06:48:17;6.25;;;1.63;;
64959;SDS011;51487;52.266;10.542;2022-07-18T06:50:43;4.15;;;1.60;;
64959;SDS011;51487;52.266;10.542;2022-07-18T06:53:09;3.13;;;1.50;;
64959;SDS011;51487;52.266;10.542;2022-07-18T06:55:34;5.72;;;1.83;;
64959;SDS011;51487;52.266;10.542;2022-07-18T06:58:00;4.10;;;1.63;;
64959;SDS011;51487;52.266;10.542;2022-07-18T07:00:26;6.10;;;1.63;;
64959;SDS011;51487;52.266;10.542;2022-07-18T07:02:52;3.78;;;1.40;;
64959;SDS011;51487;52.266;10.542;2022-07-18T07:05:18;5.32;;;1.55;;
64959;SDS011;51487;52.266;10.542;2022-07-18T07:07:46;5.07;;;1.60;;
64959;SDS011;51487;52.266;10.542;2022-07-18T07:10:12;3.78;;;1.50;;
64959;SDS011;51487;52.266;10.542;2022-07-18T07:12:39;3.53;;;1.58;;
64959;SDS011;51487;52.266;10.542;2022-07-18T07:15:14;6.18;;;1.70;;
64959;SDS011;51487;52.266;10.542;2022-07-18T07:17:43;3.40;;;1.60;;
64959;SDS011;51487;52.266;10.542;2022-07-18T07:20:10;5.60;;;1.73;;
64959;SDS011;51487;52.266;10.542;2022-07-18T07:22:56;3.95;;;1.58;;
64959;SDS011;51487;52.266;10.542;2022-07-18T07:25:23;5.10;;;1.88;;
64959;SDS011;51487;52.266;10.542;2022-07-18T07:27:51;6.78;;;1.63;;
64959;SDS011;51487;52.266;10.542;2022-07-18T07:30:18;3.42;;;1.45;;
64959;SDS011;51487;52.266;10.542;2022-07-18T07:32:45;5.10;;;1.60;;
64959;SDS011;51487;52.266;10.542;2022-07-18T07:35:15;6.95;;;1.80;;
64959;SDS011;51487;52.266;10.542;2022-07-18T07:37:43;5.47;;;1.70;;
64959;SDS011;51487;52.266;10.542;2022-07-18T07:40:12;8.25;;;1.67;;
64959;SDS011;51487;52.266;10.542;2022-07-18T07:42:39;2.67;;;1.45;;
64959;SDS011;51487;52.266;10.542;2022-07-18T07:45:05;7.72;;;1.70;;
64959;SDS011;51487;52.266;10.542;2022-07-18T07:47:31;4.97;;;1.67;;
64959;SDS011;51487;52.266;10.542;2022-07-18T07:49:57;4.80;;;1.60;;
64959;SDS011;51487;52.266;10.542;2022-07-18T07:52:24;4.18;;;1.50;;
64959;SDS011;51487;52.266;10.542;2022-07-18T07:54:50;8.10;;;1.73;;
64959;SDS011;51487;52.266;10.542;2022-07-18T07:57:16;3.28;;;1.50;;
64959;SDS011;51487;52.266;10.542;2022-07-18T07:59:41;3.90;;;1.50;;
64959;SDS011;51487;52.266;10.542;2022-07-18T08:02:07;3.10;;;1.70;;
64959;SDS011;51487;52.266;10.542;2022-07-18T08:04:33;7.65;;;1.70;;
64959;SDS011;51487;52.266;10.542;2022-07-18T08:06:59;5.45;;;1.55;;
64959;SDS011;51487;52.266;10.542;2022-07-18T08:09:25;4.63;;;1.58;;
64959;SDS011;51487;52.266;10.542;2022-07-18T08:11:50;3.28;;;1.40;;
64959;SDS011;51487;52.266;10.542;2022-07-18T08:14:16;3.13;;;1.65;;
64959;SDS011;51487;52.266;10.542;2022-07-18T08:16:41;4.38;;;1.45;;
64959;SDS011;51487;52.266;10.542;2022-07-18T08:19:07;2.83;;;1.50;;
64959;SDS011;51487;52.266;10.542;2022-07-18T08:21:33;3.58;;;1.45;;
64959;SDS011;51487;52.266;10.542;2022-07-18T08:23:58;5.03;;;1.63;;
64959;SDS011;51487;52.266;10.542;2022-07-18T08:26:24;5.40;;;1.60;;
64959;SDS011;51487;52.266;10.542;2022-07-18T08:28:50;3.30;;;1.40;;
64959;SDS011;51487;52.266;10.542;2022-07-18T08:31:16;3.63;;;1.30;;
64959;SDS011;51487;52.266;10.542;2022-07-18T08:33:43;6.25;;;1.77;;
64959;SDS011;51487;52.266;10.542;2022-07-18T08:36:10;5.20;;;1.40;;
64959;SDS011;51487;52.266;10.542;2022-07-18T08:38:36;4.63;;;1.55;;
64959;SDS011;51487;52.266;10.542;2022-07-18T08:41:02;3.67;;;1.30;;
64959;SDS011;51487;52.266;10.542;2022-07-18T08:43:29;3.83;;;1.50;;
64959;SDS011;51487;52.266;10.542;2022-07-18T08:45:57;3.78;;;1.45;;
64959;SDS011;51487;52.266;10.542;2022-07-18T08:48:28;2.47;;;1.45;;
64959;SDS011;51487;52.266;10.542;2022-07-18T08:50:55;3.10;;;1.67;;
64959;SDS011;51487;52.266;10.542;2022-07-18T08:53:20;3.35;;;1.48;;
64959;SDS011;51487;52.266;10.542;2022-07-18T08:55:47;3.08;;;1.25;;
64959;SDS011;51487;52.266;10.542;2022-07-18T08:58:14;4.53;;;1.50;;
64959;SDS011;51487;52.266;10.542;2022-07-18T09:00:42;2.78;;;1.40;;
64959;SDS011;51487;52.266;10.542;2022-07-18T09:03:09;5.40;;;1.70;;
64959;SDS011;51487;52.266;10.542;2022-07-18T09:05:36;6.70;;;1.48;;
64959;SDS011;51487;52.266;10.542;2022-07-18T09:08:13;4.25;;;1.50;;
64959;SDS011;51487;52.266;10.542;2022-07-18T09:13:39;2.58;;;1.20;;
64959;SDS011;51487;52.266;10.542;2022-07-18T09:16:13;4.10;;;1.40;;
64959;SDS011;51487;52.266;10.542;2022-07-18T09:18:41;2.85;;;1.30;;
64959;SDS011;51487;52.266;10.542;2022-07-18T09:21:11;3.55;;;1.40;;
64959;SDS011;51487;52.266;10.542;2022-07-18T09:23:40;3.08;;;1.50;;
64959;SDS011;51487;52.266;10.542;2022-07-18T09:26:09;6.05;;;1.30;;
64959;SDS011;51487;52.266;10.542;2022-07-18T09:28:52;5.65;;;1.70;;
64959;SDS011;51487;52.266;10.542;2022-07-18T09:31:23;6.70;;;1.70;;
64959;SDS011;51487;52.266;10.542;2022-07-18T09:33:56;3.60;;;1.40;;
64959;SDS011;51487;52.266;10.542;2022-07-18T09:36:24;3.40;;;1.48;;
64959;SDS011;51487;52.266;10.542;2022-07-18T09:38:50;3.85;;;1.73;;
64959;SDS011;51487;52.266;10.542;2022-07-18T09:41:21;4.10;;;1.75;;
64959;SDS011;51487;52.266;10.542;2022-07-18T09:43:51;5.07;;;1.77;;
64959;SDS011;51487;52.266;10.542;2022-07-18T09:46:16;4.60;;;1.80;;
64959;SDS011;51487;52.266;10.542;2022-07-18T09:48:42;4.82;;;2.15;;
64959;SDS011;51487;52.266;10.542;2022-07-18T09:51:08;3.85;;;2.25;;
64959;SDS011;51487;52.266;10.542;2022-07-18T09:53:38;3.75;;;1.90;;
64959;SDS011;51487;52.266;10.542;2022-07-18T09:58:42;3.13;;;1.70;;
64959;SDS011;51487;52.266;10.542;2022-07-18T10:01:16;2.63;;;1.70;;
64959;SDS011;51487;52.266;10.542;2022-07-18T10:03:42;2.20;;;1.40;;
64959;SDS011;51487;52.266;10.542;2022-07-18T10:06:09;5.07;;;1.77;;
64959;SDS011;51487;52.266;10.542;2022-07-18T10:08:35;4.38;;;1.70;;
64959;SDS011;51487;52.266;10.542;2022-07-18T10:11:03;3.97;;;1.70;;
64959;SDS011;51487;52.266;10.542;2022-07-18T10:13:31;4.35;;;2.00;;
64959;SDS011;51487;52.266;10.542;2022-07-18T10:15:59;3.38;;;1.98;;
64959;SDS011;51487;52.266;10.542;2022-07-18T10:18:30;5.15;;;2.20;;
64959;SDS011;51487;52.266;10.542;2022-07-18T10:26:10;4.43;;;2.28;;
64959;SDS011;51487;52.266;10.542;2022-07-18T10:31:28;3.65;;;2.00;;
64959;SDS011;51487;52.266;10.542;2022-07-18T10:33:54;3.17;;;1.90;;
64959;SDS011;51487;52.266;10.542;2022-07-18T10:36:35;3.92;;;2.00;;
64959;SDS011;51487;52.266;10.542;2022-07-18T10:44:31;5.10;;;2.27;;
64959;SDS011;51487;52.266;10.542;2022-07-18T11:02:39;3.88;;;1.80;;
64959;SDS011;51487;52.266;10.542;2022-07-18T11:05:52;5.40;;;2.00;;
64959;SDS011;51487;52.266;10.542;2022-07-18T11:15:54;4.47;;;2.03;;
64959;SDS011;51487;52.266;10.542;2022-07-18T11:21:18;3.78;;;2.20;;
64959;SDS011;51487;52.266;10.542;2022-07-18T11:24:02;11.55;;;2.85;;
64959;SDS011;51487;52.266;10.542;2022-07-18T11:26:34;4.25;;;2.35;;
64959;SDS011;51487;52.266;10.542;2022-07-18T11:29:10;5.97;;;2.30;;
64959;SDS011;51487;52.266;10.542;2022-07-18T11:31:48;4.70;;;2.50;;
64959;SDS011;51487;52.266;10.542;2022-07-18T11:34:20;3.65;;;2.13;;
64959;SDS011;51487;52.266;10.542;2022-07-18T11:36:47;5.22;;;2.53;;
64959;SDS011;51487;52.266;10.542;2022-07-18T11:39:13;6.45;;;2.50;;
64959;SDS011;51487;52.266;10.542;2022-07-18T11:41:52;4.68;;;2.33;;
64959;SDS011;51487;52.266;10.542;2022-07-18T11:44:18;5.45;;;2.50;;
64959;SDS011;51487;52.266;10.542;2022-07-18T11:47:01;6.43;;;2.90;;
64959;SDS011;51487;52.266;10.542;2022-07-18T11:49:33;4.45;;;2.47;;
64959;SDS011;51487;52.266;10.542;2022-07-18T11:52:00;5.68;;;2.10;;
64959;SDS011;51487;52.266;10.542;2022-07-18T11:54:26;3.75;;;2.30;;
64959;SDS011;51487;52.266;10.542;2022-07-18T11:56:54;5.53;;;2.58;;
64959;SDS011;51487;52.266;10.542;2022-07-18T11:59:20;6.90;;;2.40;;
64959;SDS011;51487;52.266;10.542;2022-07-18T12:01:47;5.32;;;2.20;;
64959;SDS011;51487;52.266;10.542;2022-07-18T12:04:17;4.60;;;2.20;;
64959;SDS011;51487;52.266;10.542;2022-07-18T12:06:46;6.80;;;2.40;;
64959;SDS011;51487;52.266;10.542;2022-07-18T12:10:16;7.20;;;2.45;;
64959;SDS011;51487;52.266;10.542;2022-07-18T12:12:42;4.38;;;2.22;;
64959;SDS011;51487;52.266;10.542;2022-07-18T12:15:08;6.53;;;1.95;;
64959;SDS011;51487;52.266;10.542;2022-07-18T12:17:43;3.80;;;2.08;;
64959;SDS011;51487;52.266;10.542;2022-07-18T12:20:18;5.20;;;2.10;;
64959;SDS011;51487;52.266;10.542;2022-07-18T12:25:40;3.10;;;2.10;;
64959;SDS011;51487;52.266;10.542;2022-07-18T12:30:44;6.47;;;2.20;;
64959;SDS011;51487;52.266;10.542;2022-07-18T12:33:10;6.30;;;1.90;;
64959;SDS011;51487;52.266;10.542;2022-07-18T12:35:36;5.00;;;1.98;;
64959;SDS011;51487;52.266;10.542;2022-07-18T12:38:12;4.60;;;1.80;;
64959;SDS011;51487;52.266;10.542;2022-07-18T12:40:45;3.05;;;1.70;;
64959;SDS011;51487;52.266;10.542;2022-07-18T12:43:26;6.00;;;2.00;;
64959;SDS011;51487;52.266;10.542;2022-07-18T12:45:55;4.25;;;1.88;;
64959;SDS011;51487;52.266;10.542;2022-07-18T12:48:26;3.72;;;1.70;;
64959;SDS011;51487;52.266;10.542;2022-07-18T12:50:56;4.63;;;2.10;;
64959;SDS011;51487;52.266;10.542;2022-07-18T12:53:25;4.57;;;2.50;;
64959;SDS011;51487;52.266;10.542;2022-07-18T12:55:53;3.90;;;2.10;;
64959;SDS011;51487;52.266;10.542;2022-07-18T12:58:19;7.60;;;2.03;;
64959;SDS011;51487;52.266;10.542;2022-07-18T13:00:46;5.25;;;2.03;;
64959;SDS011;51487;52.266;10.542;2022-07-18T13:03:13;3.90;;;2.05;;
64959;SDS011;51487;52.266;10.542;2022-07-18T13:05:40;4.40;;;2.10;;
64959;SDS011;51487;52.266;10.542;2022-07-18T13:08:06;6.22;;;2.20;;
64959;SDS011;51487;52.266;10.542;2022-07-18T13:10:34;3.42;;;2.20;;
64959;SDS011;51487;52.266;10.542;2022-07-18T13:13:03;6.18;;;1.90;;
64959;SDS011;51487;52.266;10.542;2022-07-18T13:15:30;3.47;;;2.00;;
64959;SDS011;51487;52.266;10.542;2022-07-18T13:17:57;3.50;;;1.90;;
64959;SDS011;51487;52.266;10.542;2022-07-18T13:20:23;4.78;;;1.80;;
64959;SDS011;51487;52.266;10.542;2022-07-18T13:22:50;7.22;;;2.03;;
64959;SDS011;51487;52.266;10.542;2022-07-18T13:25:17;6.40;;;2.00;;
64959;SDS011;51487;52.266;10.542;2022-07-18T13:27:43;4.63;;;1.95;;
64959;SDS011;51487;52.266;10.542;2022-07-18T13:30:09;4.75;;;2.10;;
64959;SDS011;51487;52.266;10.542;2022-07-18T13:32:36;3.90;;;1.83;;
64959;SDS011;51487;52.266;10.542;2022-07-18T13:35:02;5.35;;;1.85;;
64959;SDS011;51487;52.266;10.542;2022-07-18T13:37:29;3.05;;;2.00;;
64959;SDS011;51487;52.266;10.542;2022-07-18T13:39:55;4.55;;;1.83;;
64959;SDS011;51487;52.266;10.542;2022-07-18T13:42:20;2.60;;;1.70;;
64959;SDS011;51487;52.266;10.542;2022-07-18T13:44:46;4.13;;;1.70;;
64959;SDS011;51487;52.266;10.542;2022-07-18T13:47:12;2.83;;;1.70;;
64959;SDS011;51487;52.266;10.542;2022-07-18T13:49:39;1.70;;;1.50;;
64959;SDS011;51487;52.266;10.542;2022-07-18T13:52:05;3.35;;;1.60;;
64959;SDS011;51487;52.266;10.542;2022-07-18T13:54:31;2.40;;;1.50;;
64959;SDS011;51487;52.266;10.542;2022-07-18T13:56:57;3.72;;;1.50;;
64959;SDS011;51487;52.266;10.542;2022-07-18T13:59:22;4.63;;;1.52;;
64959;SDS011;51487;52.266;10.542;2022-07-18T14:01:48;2.83;;;1.40;;
64959;SDS011;51487;52.266;10.542;2022-07-18T14:04:15;5.47;;;1.40;;
64959;SDS011;51487;52.266;10.542;2022-07-18T14:06:43;3.42;;;1.58;;
64959;SDS011;51487;52.266;10.542;2022-07-18T14:09:10;5.30;;;1.65;;
64959;SDS011;51487;52.266;10.542;2022-07-18T14:11:36;2.67;;;1.60;;
64959;SDS011;51487;52.266;10.542;2022-07-18T14:14:02;3.78;;;1.60;;
64959;SDS011;51487;52.266;10.542;2022-07-18T14:16:29;3.83;;;1.80;;
64959;SDS011;51487;52.266;10.542;2022-07-18T14:18:56;2.72;;;1.60;;
64959;SDS011;51487;52.266;10.542;2022-07-18T14:21:21;3.00;;;1.58;;
64959;SDS011;51487;52.266;10.542;2022-07-18T14:23:48;3.78;;;1.80;;
64959;SDS011;51487;52.266;10.542;2022-07-18T14:26:13;2.80;;;1.55;;
64959;SDS011;51487;52.266;10.542;2022-07-18T14:28:39;2.10;;;1.60;;
64959;SDS011;51487;52.266;10.542;2022-07-18T14:31:05;4.72;;;1.70;;
64959;SDS011;51487;52.266;10.542;2022-07-18T14:33:31;5.05;;;1.90;;
64959;SDS011;51487;52.266;10.542;2022-07-18T14:35:56;2.38;;;1.50;;
64959;SDS011;51487;52.266;10.542;2022-07-18T14:38:22;5.32;;;1.63;;
64959;SDS011;51487;52.266;10.542;2022-07-18T14:40:48;2.40;;;1.67;;
64959;SDS011;51487;52.266;10.542;2022-07-18T14:43:13;2.92;;;1.77;;
64959;SDS011;51487;52.266;10.542;2022-07-18T14:45:39;4.93;;;1.60;;
64959;SDS011;51487;52.266;10.542;2022-07-18T14:48:05;4.00;;;1.60;;
64959;SDS011;51487;52.266;10.542;2022-07-18T14:50:31;3.67;;;1.67;;
64959;SDS011;51487;52.266;10.542;2022-07-18T14:52:57;3.35;;;1.60;;
64959;SDS011;51487;52.266;10.542;2022-07-18T14:55:22;2.72;;;1.70;;
64959;SDS011;51487;52.266;10.542;2022-07-18T14:57:48;1.58;;;1.40;;
64959;SDS011;51487;52.266;10.542;2022-07-18T15:00:13;5.60;;;1.70;;
64959;SDS011;51487;52.266;10.542;2022-07-18T15:02:39;2.60;;;1.65;;
64959;SDS011;51487;52.266;10.542;2022-07-18T15:05:05;3.35;;;1.45;;
64959;SDS011;51487;52.266;10.542;2022-07-18T15:07:32;5.47;;;1.50;;
64959;SDS011;51487;52.266;10.542;2022-07-18T15:09:58;5.00;;;1.63;;
64959;SDS011;51487;52.266;10.542;2022-07-18T15:12:24;2.08;;;1.60;;
64959;SDS011;51487;52.266;10.542;2022-07-18T15:14:50;4.78;;;1.80;;
64959;SDS011;51487;52.266;10.542;2022-07-18T15:17:19;3.40;;;1.70;;
64959;SDS011;51487;52.266;10.542;2022-07-18T15:19:46;4.72;;;1.70;;
64959;SDS011;51487;52.266;10.542;2022-07-18T15:22:12;3.15;;;1.60;;
64959;SDS011;51487;52.266;10.542;2022-07-18T15:24:37;5.47;;;1.77;;